Time;durP1;ratioP1;P1;durP2;ratioP2;P2;SDS_P1;SDS_P2;PMS_P1;PMS_P2;Temp;Humidity;BMP_temperature;BMP_pressure;BME280_temperature;BME280_humidity;BME280_pressure;Samples;Min_cycle;Max_cycle;Signal;HPM_P1;HPM_P2
2021/07/07 00:01:05;;;;;;;9.52;1.25;;;;;;;14.50;100.00;93747.38;5135637;27;20204;-79
2021/07/07 00:03:31;;;;;;;3.80;1.08;;;;;;;14.49;100.00;93755.50;5135397;27;20220;-79
2021/07/07 00:05:58;;;;;;;1.58;1.25;;;;;;;14.48;100.00;93753.91;5135170;27;20722;-79
2021/07/07 00:08:27;;;;;;;3.20;1.50;;;;;;;14.51;100.00;93763.97;5135022;27;20892;-81
2021/07/07 00:10:54;;;;;;;2.65;1.35;;;;;;;14.49;100.00;93763.38;5135284;27;20651;-80
2021/07/07 00:13:20;;;;;;;2.40;1.88;;;;;;;14.50;100.00;93757.09;5135415;27;20548;-79
2021/07/07 00:15:49;;;;;;;4.38;2.00;;;;;;;14.51;100.00;93761.34;5135231;27;20673;-80
2021/07/07 00:18:16;;;;;;;4.72;2.45;;;;;;;14.48;100.00;93765.22;5135130;27;20289;-80
2021/07/07 00:20:46;;;;;;;6.85;3.10;;;;;;;14.41;100.00;93762.69;5135056;27;20220;-80
2021/07/07 00:23:13;;;;;;;4.72;3.17;;;;;;;14.41;100.00;93754.78;5135262;27;20221;-80
2021/07/07 00:25:41;;;;;;;4.75;2.88;;;;;;;14.40;100.00;93747.13;5135137;27;20200;-80
2021/07/07 00:28:07;;;;;;;5.68;3.95;;;;;;;14.40;100.00;93747.13;5134768;27;20212;-79
2021/07/07 00:30:34;;;;;;;4.70;3.42;;;;;;;14.42;100.00;93751.16;5135048;27;20193;-83
2021/07/07 00:33:02;;;;;;;6.43;4.10;;;;;;;14.43;100.00;93752.75;5134804;27;20204;-80
2021/07/07 00:35:28;;;;;;;5.35;3.83;;;;;;;14.51;100.00;93761.34;5130766;27;20211;-80
2021/07/07 00:37:55;;;;;;;6.72;3.83;;;;;;;14.39;100.00;93750.81;5113743;27;20677;-81
2021/07/07 00:40:25;;;;;;;6.15;3.67;;;;;;;14.35;100.00;93747.81;5114302;28;20201;-79
2021/07/07 00:42:52;;;;;;;5.00;3.35;;;;;;;14.37;100.00;93745.78;5114301;28;20201;-79
2021/07/07 00:45:19;;;;;;;10.50;3.75;;;;;;;14.40;100.00;93739.25;5120099;27;20694;-80
2021/07/07 00:47:46;;;;;;;7.32;3.80;;;;;;;14.42;100.00;93745.91;5136419;27;20438;-80
2021/07/07 00:50:18;;;;;;;4.40;3.28;;;;;;;14.41;100.00;93759.25;5134720;27;20552;-79
2021/07/07 00:52:46;;;;;;;7.20;4.00;;;;;;;14.39;100.00;93750.81;5134809;27;20575;-80
2021/07/07 00:55:17;;;;;;;5.32;3.83;;;;;;;14.36;100.00;93762.56;5134664;27;20204;-82
2021/07/07 00:57:50;;;;;;;7.07;3.70;;;;;;;14.39;100.00;93748.97;5134640;27;20250;-81
2021/07/07 01:00:20;;;;;;;4.25;3.50;;;;;;;14.40;100.00;93762.91;5134279;27;20705;-82
2021/07/07 01:02:47;;;;;;;6.57;3.42;;;;;;;14.39;100.00;93762.09;5134494;27;20590;-80
2021/07/07 01:05:17;;;;;;;5.88;3.58;;;;;;;14.38;100.00;93755.25;5134403;27;20232;-82
2021/07/07 01:07:47;;;;;;;5.68;3.45;;;;;;;14.39;100.00;93751.59;5134364;27;20201;-81
2021/07/07 01:10:15;;;;;;;5.30;3.65;;;;;;;14.40;100.00;93753.19;5134239;27;20196;-81
2021/07/07 01:12:42;;;;;;;7.00;3.80;;;;;;;14.39;100.00;93748.19;5134103;27;20257;-81
2021/07/07 01:15:10;;;;;;;5.38;3.35;;;;;;;14.35;100.00;93729.41;5132222;27;20200;-80
2021/07/07 01:17:38;;;;;;;6.53;3.50;;;;;;;14.36;100.00;93714.47;5133380;27;20659;-80
2021/07/07 01:20:08;;;;;;;6.57;3.53;;;;;;;14.37;100.00;93716.06;5134296;27;20559;-80
2021/07/07 01:22:37;;;;;;;6.32;3.67;;;;;;;14.30;100.00;93731.13;5134237;27;20204;-82
2021/07/07 01:25:05;;;;;;;6.10;4.45;;;;;;;14.27;100.00;93740.25;5133869;27;20722;-79
2021/07/07 01:27:31;;;;;;;5.53;3.97;;;;;;;14.26;100.00;93741.28;5133977;27;20223;-80
2021/07/07 01:29:58;;;;;;;5.68;3.83;;;;;;;14.26;100.00;93741.28;5113227;28;20236;-82
2021/07/07 01:32:24;;;;;;;4.93;3.47;;;;;;;14.27;100.00;93737.63;5113546;28;20206;-82
2021/07/07 01:34:51;;;;;;;7.60;4.07;;;;;;;14.27;100.00;93742.06;5113396;28;20560;-82
2021/07/07 01:37:18;;;;;;;5.63;3.42;;;;;;;14.23;100.00;93744.34;5113359;28;20201;-80
2021/07/07 01:39:46;;;;;;;5.68;3.40;;;;;;;14.21;100.00;93733.28;5113304;28;20215;-82
2021/07/07 01:42:12;;;;;;;3.42;2.83;;;;;;;14.20;100.00;93735.09;5113536;28;20254;-80
2021/07/07 01:44:41;;;;;;;3.72;2.65;;;;;;;14.19;100.00;93728.25;5113151;28;20233;-80
2021/07/07 01:47:08;;;;;;;4.95;3.47;;;;;;;14.21;100.00;93728.03;5113341;28;20193;-81
2021/07/07 01:49:35;;;;;;;6.50;3.78;;;;;;;14.24;100.00;93730.22;5122343;28;20192;-81
2021/07/07 01:52:01;;;;;;;9.13;3.50;;;;;;;14.27;100.00;93721.84;5133773;28;20202;-80
2021/07/07 01:54:27;;;;;;;7.78;3.42;;;;;;;14.23;100.00;93733.84;5133628;28;20222;-79
2021/07/07 01:56:55;;;;;;;8.13;3.35;;;;;;;14.22;100.00;93734.88;5133914;28;20200;-79
2021/07/07 01:59:22;;;;;;;6.32;3.83;;;;;;;14.24;100.00;93732.84;5133863;28;20581;-81
2021/07/07 02:01:48;;;;;;;6.63;3.78;;;;;;;14.21;100.00;93743.78;5133768;28;20203;-80
2021/07/07 02:04:15;;;;;;;6.35;3.70;;;;;;;14.22;100.00;93740.13;5133574;28;20224;-82
2021/07/07 02:06:41;;;;;;;6.03;3.20;;;;;;;14.21;100.00;93738.53;5133588;28;20207;-79
2021/07/07 02:09:08;;;;;;;6.57;3.67;;;;;;;14.23;100.00;93728.59;5132354;28;20506;-80
2021/07/07 02:11:35;;;;;;;6.75;3.10;;;;;;;14.23;100.00;93739.91;5133679;28;20399;-81
2021/07/07 02:14:03;;;;;;;4.53;2.65;;;;;;;14.24;100.00;93740.72;5133657;28;20208;-81
2021/07/07 02:16:30;;;;;;;8.45;2.55;;;;;;;14.24;100.00;93730.22;5133540;28;20196;-80
2021/07/07 02:18:56;;;;;;;4.90;2.88;;;;;;;14.24;100.00;93727.59;5133562;28;20204;-80
2021/07/07 02:21:23;;;;;;;3.88;2.67;;;;;;;14.26;100.00;93725.53;5133331;28;20559;-80
2021/07/07 02:23:49;;;;;;;7.97;2.92;;;;;;;14.29;100.00;93716.38;5133537;28;20224;-79
2021/07/07 02:26:16;;;;;;;3.85;2.10;;;;;;;14.26;100.00;93717.66;5133336;28;20554;-80
2021/07/07 02:28:42;;;;;;;2.90;2.05;;;;;;;14.26;100.00;93709.78;5133875;27;20617;-80
2021/07/07 02:31:11;;;;;;;5.95;2.15;;;;;;;14.23;100.00;93700.50;5137236;27;20657;-82
2021/07/07 02:33:37;;;;;;;2.30;1.80;;;;;;;14.23;100.00;93695.25;5137237;27;20203;-81
2021/07/07 02:36:04;;;;;;;1.98;1.42;;;;;;;14.20;100.00;93694.91;5137084;27;20208;-81
2021/07/07 02:38:31;;;;;;;1.65;1.30;;;;;;;14.19;100.00;93680.19;5137144;27;20677;-79
2021/07/07 02:40:58;;;;;;;4.20;1.58;;;;;;;14.22;100.00;93672.66;5137257;27;20362;-79
2021/07/07 02:43:26;;;;;;;2.58;1.60;;;;;;;14.23;100.00;93676.09;5137015;27;20654;-80
2021/07/07 02:45:53;;;;;;;3.13;1.10;;;;;;;14.20;100.00;93700.16;5136908;27;20713;-79
2021/07/07 02:48:21;;;;;;;2.42;1.50;;;;;;;14.22;100.00;93724.34;5136969;27;20257;-80
2021/07/07 02:50:48;;;;;;;1.92;1.40;;;;;;;14.19;100.00;93736.13;5136761;27;20669;-80
2021/07/07 02:53:16;;;;;;;2.58;1.65;;;;;;;14.20;100.00;93747.41;5137041;27;20295;-80
2021/07/07 02:55:44;;;;;;;4.25;1.85;;;;;;;14.22;100.00;93754.06;5136971;27;20197;-79
2021/07/07 02:58:11;;;;;;;5.65;2.53;;;;;;;14.21;100.00;93762.97;5136878;27;20208;-80
2021/07/07 03:00:39;;;;;;;4.32;2.50;;;;;;;14.18;100.00;93767.84;5136727;27;20200;-79
2021/07/07 03:03:07;;;;;;;6.30;2.50;;;;;;;14.25;100.00;93771.19;5136708;27;20204;-80
2021/07/07 03:05:37;;;;;;;3.08;2.35;;;;;;;14.25;100.00;93765.94;5136857;27;20315;-81
2021/07/07 03:08:04;;;;;;;4.43;2.38;;;;;;;14.25;100.00;93737.88;5136584;27;20722;-80
2021/07/07 03:10:31;;;;;;;7.88;2.20;;;;;;;14.24;100.00;93719.72;5136729;27;20211;-81
2021/07/07 03:12:58;;;;;;;3.75;2.20;;;;;;;14.21;100.00;93707.03;5136383;27;20600;-81
2021/07/07 03:15:26;;;;;;;2.67;1.90;;;;;;;14.20;100.00;93695.69;5136486;27;20220;-81
2021/07/07 03:17:53;;;;;;;3.53;1.83;;;;;;;14.19;100.00;93694.13;5136634;27;20249;-80
2021/07/07 03:20:20;;;;;;;2.38;1.30;;;;;;;14.16;100.00;93717.41;5136552;27;20200;-81
2021/07/07 03:22:48;;;;;;;2.78;1.73;;;;;;;14.17;100.00;93748.69;5136393;27;20211;-80
2021/07/07 03:25:15;;;;;;;3.70;2.10;;;;;;;14.19;100.00;93751.09;5136221;27;20719;-80
2021/07/07 03:27:41;;;;;;;4.03;1.90;;;;;;;14.21;100.00;93755.06;5136099;27;20647;-82
2021/07/07 03:30:10;;;;;;;3.10;1.60;;;;;;;14.21;100.00;93762.16;5136237;27;20230;-81
2021/07/07 03:32:37;;;;;;;2.17;1.90;;;;;;;14.21;100.00;93762.16;5136348;27;20196;-80
2021/07/07 03:35:04;;;;;;;4.30;1.83;;;;;;;14.23;100.00;93765.38;5136358;27;20203;-81
2021/07/07 03:37:31;;;;;;;2.20;1.70;;;;;;;14.26;100.00;93757.03;5136296;27;20203;-80
2021/07/07 03:39:59;;;;;;;3.47;1.77;;;;;;;14.28;100.00;93760.25;5136138;27;20200;-80
2021/07/07 03:42:25;;;;;;;2.67;1.83;;;;;;;14.31;100.00;93757.16;5135510;27;20204;-80
2021/07/07 03:44:52;;;;;;;3.30;1.92;;;;;;;14.34;100.00;93746.22;5135802;27;20220;-80
2021/07/07 03:47:21;;;;;;;4.20;1.90;;;;;;;14.38;100.00;93746.56;5135987;27;20216;-79
2021/07/07 03:49:49;;;;;;;3.00;1.60;;;;;;;14.38;100.00;93752.63;5135800;27;20822;-80
2021/07/07 03:52:16;;;;;;;4.05;1.38;;;;;;;14.37;100.00;93745.78;5135820;27;20201;-81
2021/07/07 03:54:42;;;;;;;1.83;1.35;;;;;;;14.39;100.00;93740.31;5135720;27;20197;-80
2021/07/07 03:57:13;;;;;;;1.45;1.20;;;;;;;14.34;100.00;93745.41;5135073;27;20197;-80
2021/07/07 03:59:41;;;;;;;7.32;1.42;;;;;;;14.36;100.00;93749.41;5135928;27;20536;-80
2021/07/07 04:02:07;;;;;;;4.28;1.58;;;;;;;14.35;100.00;93739.94;5135824;27;20207;-82
2021/07/07 04:04:36;;;;;;;5.78;2.05;;;;;;;14.33;100.00;93735.94;5135434;27;20224;-81
2021/07/07 04:07:02;;;;;;;1.70;1.55;;;;;;;14.36;100.00;93741.53;5135625;27;20203;-82
2021/07/07 04:09:29;;;;;;;5.53;1.60;;;;;;;14.36;100.00;93746.78;5135590;27;20200;-81
2021/07/07 04:11:56;;;;;;;4.47;1.60;;;;;;;14.39;100.00;93753.44;5136076;27;20201;-81
2021/07/07 04:14:24;;;;;;;1.83;1.30;;;;;;;14.42;100.00;93761.66;5136058;27;20645;-82
2021/07/07 04:16:52;;;;;;;2.20;1.30;;;;;;;14.42;100.00;93760.84;5135141;27;20651;-80
2021/07/07 04:19:19;;;;;;;1.83;1.20;;;;;;;14.42;100.00;93769.53;5135308;27;20204;-81
2021/07/07 04:21:45;;;;;;;2.55;1.20;;;;;;;14.37;100.00;93774.66;5135141;27;20204;-81
2021/07/07 04:24:12;;;;;;;1.65;0.90;;;;;;;14.34;100.00;93772.50;5135071;27;20200;-80
2021/07/07 04:26:38;;;;;;;4.15;1.75;;;;;;;14.33;100.00;93778.75;5134589;27;20665;-80
2021/07/07 04:29:05;;;;;;;2.28;1.58;;;;;;;14.35;100.00;93783.78;5134802;27;20723;-81
2021/07/07 04:31:33;;;;;;;2.17;1.40;;;;;;;14.39;100.00;93775.25;5135082;27;20207;-84
2021/07/07 04:34:00;;;;;;;2.13;1.40;;;;;;;14.38;100.00;93781.50;5135102;27;20192;-82
2021/07/07 04:36:26;;;;;;;2.58;1.52;;;;;;;14.36;100.00;93793.28;5134924;27;20200;-81
2021/07/07 04:38:53;;;;;;;1.92;1.63;;;;;;;14.39;100.00;93793.63;5135092;27;20257;-82
2021/07/07 04:41:22;;;;;;;7.85;2.13;;;;;;;14.32;100.00;93803.44;5135840;27;20216;-80
2021/07/07 04:43:49;;;;;;;3.97;1.90;;;;;;;14.23;100.00;93800.28;5134947;27;20207;-79
2021/07/07 04:46:16;;;;;;;10.05;2.75;;;;;;;14.04;100.00;93807.41;5134749;27;20698;-80
2021/07/07 04:48:44;;;;;;;4.97;3.65;;;;;;;13.65;100.00;93812.06;5134833;27;20647;-81
2021/07/07 04:51:11;;;;;;;9.45;2.80;;;;;;;13.49;100.00;93817.91;5134766;27;20204;-80
2021/07/07 04:53:37;;;;;;;5.43;2.70;;;;;;;13.50;100.00;93806.41;5133846;27;20283;-80
2021/07/07 04:56:04;;;;;;;4.15;2.55;;;;;;;13.56;100.00;93800.28;5134836;27;20201;-81
2021/07/07 04:58:31;;;;;;;3.53;2.08;;;;;;;13.46;100.00;93790.28;5134694;27;20224;-79
2021/07/07 05:00:57;;;;;;;4.75;1.63;;;;;;;13.46;100.00;93800.00;5134541;27;20193;-79
2021/07/07 05:03:24;;;;;;;3.67;1.40;;;;;;;13.40;100.00;93820.00;5134516;27;20201;-79
2021/07/07 05:05:52;;;;;;;2.73;1.40;;;;;;;13.31;100.00;93827.31;5134368;27;20277;-82
2021/07/07 05:08:18;;;;;;;2.03;1.10;;;;;;;13.27;100.00;93810.44;5134363;27;20196;-83
2021/07/07 05:10:46;;;;;;;2.47;0.70;;;;;;;13.21;100.00;93813.91;5134510;27;20201;-82
2021/07/07 05:13:13;;;;;;;0.90;0.77;;;;;;;13.19;100.00;93838.72;5134412;27;20200;-80
2021/07/07 05:15:40;;;;;;;2.83;1.27;;;;;;;13.22;100.00;93843.53;5134176;27;20201;-80
2021/07/07 05:18:07;;;;;;;1.98;1.20;;;;;;;13.30;100.00;93846.69;5134288;27;20230;-80
2021/07/07 05:20:34;;;;;;;1.42;1.08;;;;;;;13.27;100.00;93844.50;5133998;27;20592;-80
2021/07/07 05:23:06;;;;;;;4.90;0.70;;;;;;;13.37;100.00;93857.13;5134275;27;20201;-80
2021/07/07 05:25:33;;;;;;;1.60;0.80;;;;;;;13.39;100.00;93867.41;5134169;27;20228;-80
2021/07/07 05:28:01;;;;;;;1.17;0.80;;;;;;;13.40;100.00;93874.28;5133910;27;20232;-80
2021/07/07 05:30:28;;;;;;;3.03;0.93;;;;;;;13.48;100.00;93869.56;5134064;27;20719;-81
2021/07/07 05:32:55;;;;;;;2.45;0.80;;;;;;;13.43;100.00;93868.59;5133958;27;20201;-80
2021/07/07 05:35:21;;;;;;;1.02;0.80;;;;;;;13.46;100.00;93866.34;5134116;27;20204;-80
2021/07/07 05:37:49;;;;;;;1.73;0.80;;;;;;;13.42;100.00;93878.31;5134004;27;20193;-80
2021/07/07 05:40:18;;;;;;;0.85;0.70;;;;;;;13.31;100.00;93879.75;5133882;27;20656;-81
2021/07/07 05:42:49;;;;;;;0.77;0.77;;;;;;;13.38;100.00;93881.56;5133967;27;20204;-81
2021/07/07 05:45:16;;;;;;;2.33;1.60;;;;;;;13.39;100.00;93872.66;5133821;28;20225;-82
2021/07/07 05:47:42;;;;;;;2.13;1.00;;;;;;;13.39;100.00;93881.34;5133753;28;20204;-80
2021/07/07 05:50:09;;;;;;;3.55;1.38;;;;;;;13.32;100.00;93878.78;5133965;28;20208;-81
2021/07/07 05:52:36;;;;;;;2.90;1.40;;;;;;;13.31;100.00;93885.00;5133975;28;20196;-81
2021/07/07 05:55:02;;;;;;;3.30;1.48;;;;;;;13.26;100.00;93871.75;5133629;28;20291;-81
2021/07/07 05:57:38;;;;;;;2.33;1.17;;;;;;;13.25;100.00;93870.13;5133553;28;20197;-81
2021/07/07 06:00:08;;;;;;;4.20;1.33;;;;;;;13.33;100.00;93864.63;5134142;28;20204;-81
2021/07/07 06:02:34;;;;;;;2.03;1.17;;;;;;;13.40;100.00;93858.53;5133960;28;20555;-80
2021/07/07 06:05:01;;;;;;;2.97;1.38;;;;;;;13.52;100.00;93862.06;5136747;27;20227;-81
2021/07/07 06:07:27;;;;;;;2.63;1.30;;;;;;;13.38;100.00;93873.69;5137899;27;20288;-82
2021/07/07 06:09:54;;;;;;;2.83;1.50;;;;;;;13.27;100.00;93873.34;5138000;27;20204;-82
2021/07/07 06:12:20;;;;;;;2.28;1.27;;;;;;;13.21;100.00;93858.47;5137801;27;20299;-81
2021/07/07 06:14:48;;;;;;;2.30;1.30;;;;;;;13.26;100.00;93842.91;5137587;27;20253;-82
2021/07/07 06:17:14;;;;;;;2.20;1.23;;;;;;;13.37;100.00;93853.72;5137542;27;20197;-82
2021/07/07 06:19:43;;;;;;;3.35;1.80;;;;;;;13.43;100.00;93851.03;5137536;27;20575;-82
2021/07/07 06:22:10;;;;;;;2.13;1.48;;;;;;;13.41;100.00;93868.81;5137715;27;20558;-82
2021/07/07 06:24:36;;;;;;;1.35;1.00;;;;;;;13.35;100.00;93867.06;5137618;27;20253;-82
2021/07/07 06:27:03;;;;;;;2.63;1.05;;;;;;;13.32;100.00;93897.16;5138311;27;20590;-83
2021/07/07 06:29:30;;;;;;;3.40;1.40;;;;;;;13.34;100.00;93912.66;5137616;27;20224;-83
2021/07/07 06:31:58;;;;;;;1.85;1.40;;;;;;;13.36;100.00;93913.25;5137559;27;20204;-81
2021/07/07 06:34:25;;;;;;;3.40;1.38;;;;;;;13.44;100.00;93906.91;5137451;27;20228;-82
2021/07/07 06:36:51;;;;;;;3.22;1.70;;;;;;;13.63;100.00;93923.50;5137434;27;20211;-82
2021/07/07 06:39:18;;;;;;;5.60;1.60;;;;;;;13.50;100.00;93940.97;5137329;27;20196;-82
2021/07/07 06:41:44;;;;;;;5.20;1.38;;;;;;;13.37;100.00;93948.13;5137387;27;20204;-82
2021/07/07 06:44:10;;;;;;;2.50;1.67;;;;;;;13.32;100.00;93936.47;5137482;27;20201;-82
2021/07/07 06:46:37;;;;;;;3.35;2.08;;;;;;;13.42;100.00;93943.06;5137490;27;20718;-82
2021/07/07 06:49:05;;;;;;;7.85;1.90;;;;;;;13.54;100.00;93951.84;5137276;27;20262;-83
2021/07/07 06:51:31;;;;;;;5.30;1.77;;;;;;;13.64;100.00;93948.75;5137613;27;20208;-83
2021/07/07 06:53:58;;;;;;;5.40;1.83;;;;;;;13.67;100.00;93948.28;5137128;27;20588;-84
2021/07/07 06:56:24;;;;;;;6.22;1.77;;;;;;;13.73;100.00;93930.91;5136894;27;20200;-83
2021/07/07 06:58:51;;;;;;;2.83;1.52;;;;;;;13.74;100.00;93927.25;5136685;27;20559;-83
2021/07/07 07:01:20;;;;;;;5.20;2.10;;;;;;;13.68;100.00;93919.22;5136835;27;20205;-83
2021/07/07 07:03:47;;;;;;;1.65;0.88;;;;;;;13.62;100.00;93909.59;5137255;27;20197;-83
2021/07/07 07:06:15;;;;;;;2.65;1.30;;;;;;;13.62;100.00;93909.59;5137097;27;20273;-84
2021/07/07 07:08:41;;;;;;;4.72;1.35;;;;;;;13.70;100.00;93905.88;5136999;27;20204;-84
2021/07/07 07:11:10;;;;;;;2.75;1.40;;;;;;;13.63;100.00;93899.91;5136810;27;20200;-84
2021/07/07 07:13:37;;;;;;;2.28;1.40;;;;;;;13.77;100.00;93908.44;5137281;27;20205;-83
2021/07/07 07:16:03;;;;;;;2.42;1.45;;;;;;;13.87;100.00;93916.63;5135996;27;20197;-84
2021/07/07 07:18:30;;;;;;;2.45;0.90;;;;;;;13.94;100.00;93927.88;5137258;27;20200;-86
2021/07/07 07:20:56;;;;;;;2.25;1.08;;;;;;;14.04;100.00;93933.41;5137032;27;20204;-86
2021/07/07 07:23:24;;;;;;;2.45;1.27;;;;;;;13.96;100.00;93944.19;5136686;27;20200;-84
2021/07/07 07:25:51;;;;;;;2.45;1.35;;;;;;;13.92;100.00;93929.09;5137312;27;20225;-83
2021/07/07 07:28:17;;;;;;;4.40;1.25;;;;;;;13.85;100.00;93937.81;5136519;27;20220;-83
2021/07/07 07:30:45;;;;;;;3.28;1.20;;;;;;;13.91;100.00;93938.81;5136598;27;20203;-83
2021/07/07 07:33:12;;;;;;;2.47;1.60;;;;;;;13.96;100.00;93938.94;5136286;27;20200;-83
2021/07/07 07:35:41;;;;;;;2.63;1.35;;;;;;;14.12;100.00;93936.78;5136274;27;20200;-83
2021/07/07 07:38:11;;;;;;;2.25;1.00;;;;;;;14.20;100.00;93939.13;5136230;27;20246;-82
2021/07/07 07:40:41;;;;;;;6.68;1.08;;;;;;;14.28;100.00;93944.06;5136402;27;20316;-84
2021/07/07 07:43:10;;;;;;;1.77;1.02;;;;;;;14.45;100.00;93946.91;5136909;27;20203;-85
2021/07/07 07:45:37;;;;;;;1.52;1.17;;;;;;;14.51;100.00;93955.75;5135447;27;20954;-83
2021/07/07 07:48:05;;;;;;;2.70;1.30;;;;;;;14.60;100.00;93957.06;5137428;27;20204;-86
2021/07/07 07:50:32;;;;;;;1.38;1.10;;;;;;;14.68;100.00;93955.97;5137315;27;20215;-83
2021/07/07 07:52:59;;;;;;;1.40;1.00;;;;;;;14.51;100.00;93968.91;5136213;27;20221;-81
2021/07/07 07:55:26;;;;;;;2.25;1.10;;;;;;;14.46;100.00;93972.16;5136323;27;20205;-84
2021/07/07 07:57:54;;;;;;;3.53;1.15;;;;;;;14.41;100.00;93966.78;5136857;27;20223;-83
2021/07/07 08:00:23;;;;;;;1.65;1.20;;;;;;;14.29;100.00;93961.44;5137328;27;20207;-84
2021/07/07 08:02:50;;;;;;;2.05;1.10;;;;;;;14.35;100.00;93965.00;5136652;27;20197;-83
2021/07/07 08:05:18;;;;;;;1.60;1.17;;;;;;;14.47;100.00;93970.34;5136948;27;20201;-84
2021/07/07 08:07:45;;;;;;;1.60;1.15;;;;;;;14.61;100.00;93956.84;5137029;27;20253;-84
2021/07/07 08:10:16;;;;;;;5.95;1.40;;;;;;;14.83;100.00;93960.84;5137350;27;20200;-82
2021/07/07 08:12:42;;;;;;;5.95;1.10;;;;;;;14.85;100.00;93958.78;5136252;27;20201;-82
2021/07/07 08:15:11;;;;;;;1.85;1.35;;;;;;;14.99;100.00;93957.59;5137607;27;20682;-83
2021/07/07 08:17:37;;;;;;;1.75;1.20;;;;;;;14.89;100.00;93947.63;5138317;27;20253;-82
2021/07/07 08:20:06;;;;;;;7.30;1.30;;;;;;;14.83;100.00;93950.34;5139750;27;20304;-83
2021/07/07 08:22:32;;;;;;;1.83;1.25;;;;;;;14.82;100.00;93943.47;5140396;27;20196;-83
2021/07/07 08:24:59;;;;;;;1.88;1.45;;;;;;;14.70;100.00;93941.59;5137887;27;20224;-83
2021/07/07 08:27:25;;;;;;;3.45;1.60;;;;;;;14.74;100.00;93942.75;5135995;27;20449;-84
2021/07/07 08:29:52;;;;;;;2.75;1.35;;;;;;;14.70;100.00;93952.09;5138387;27;20306;-83
2021/07/07 08:32:20;;;;;;;2.95;1.73;;;;;;;14.61;100.00;93948.19;5136513;27;20201;-83
2021/07/07 08:34:47;;;;;;;2.25;1.70;;;;;;;14.54;100.00;93952.69;5137879;27;20196;-83
2021/07/07 08:37:14;;;;;;;3.67;2.00;;;;;;;14.44;100.00;93964.50;5135912;27;20555;-83
2021/07/07 08:39:41;;;;;;;4.13;1.60;;;;;;;14.36;100.00;93972.69;5136854;27;20651;-84
2021/07/07 08:42:08;;;;;;;2.70;1.63;;;;;;;14.21;100.00;93975.66;5136632;27;20200;-85
2021/07/07 08:44:35;;;;;;;2.50;1.70;;;;;;;14.18;100.00;93972.66;5136617;27;20200;-84
2021/07/07 08:47:03;;;;;;;2.30;1.30;;;;;;;14.32;100.00;93971.53;5135875;27;20309;-85
2021/07/07 08:49:31;;;;;;;4.55;1.30;;;;;;;14.50;100.00;93990.91;5137440;27;20197;-85
2021/07/07 08:51:58;;;;;;;5.15;1.55;;;;;;;14.65;100.00;93999.25;5135587;27;20544;-84
2021/07/07 08:54:24;;;;;;;2.10;1.50;;;;;;;14.82;100.00;94011.81;5134523;27;20199;-78
2021/07/07 08:56:51;;;;;;;2.92;1.98;;;;;;;15.16;100.00;93998.03;5134518;27;20229;-80
2021/07/07 08:59:19;;;;;;;4.55;1.75;;;;;;;15.45;100.00;94002.69;5134408;27;20201;-78
2021/07/07 09:02:03;;;;;;;4.15;2.05;;;;;;;15.47;100.00;94004.09;5134767;27;20219;-84
2021/07/07 09:04:32;;;;;;;4.50;1.55;;;;;;;15.50;100.00;94014.16;5136305;27;20275;-83
2021/07/07 09:07:00;;;;;;;3.60;1.70;;;;;;;15.50;100.00;94014.16;5135742;27;20679;-83
2021/07/07 09:09:37;;;;;;;2.25;1.63;;;;;;;15.43;100.00;94004.75;5138452;27;20207;-82
2021/07/07 09:12:15;;;;;;;2.10;1.33;;;;;;;15.60;100.00;93997.00;5138090;27;20281;-82
2021/07/07 09:14:43;;;;;;;2.40;1.50;;;;;;;15.73;100.00;94000.22;5136321;27;20223;-84
2021/07/07 09:17:14;;;;;;;2.45;1.50;;;;;;;15.86;100.00;93985.28;5137246;27;20223;-83
2021/07/07 09:19:42;;;;;;;5.78;1.40;;;;;;;15.87;100.00;93992.97;5136034;27;20205;-83
2021/07/07 09:22:11;;;;;;;1.30;1.00;;;;;;;15.98;100.00;93994.00;5137257;27;20200;-82
2021/07/07 09:24:39;;;;;;;1.63;1.30;;;;;;;15.99;100.00;93994.81;5136420;27;20236;-82
2021/07/07 09:27:07;;;;;;;2.92;1.50;;;;;;;15.94;100.00;93981.50;5140377;27;20239;-83
2021/07/07 09:29:36;;;;;;;1.95;1.35;;;;;;;16.14;100.00;93979.34;5137640;27;20698;-82
2021/07/07 09:32:18;;;;;;;1.73;1.38;;;;;;;16.50;100.00;93995.13;5136028;27;20589;-81
2021/07/07 09:34:48;;;;;;;2.80;1.30;;;;;;;16.40;100.00;94000.97;5134289;27;20204;-82
2021/07/07 09:37:25;;;;;;;2.97;1.30;;;;;;;16.00;100.00;94001.66;5134574;27;20205;-82
2021/07/07 09:39:53;;;;;;;1.92;1.17;;;;;;;16.08;100.00;94004.75;5134256;27;20261;-82
2021/07/07 09:42:25;;;;;;;2.97;1.60;;;;;;;16.77;100.00;94001.50;5136871;27;20201;-82
2021/07/07 09:44:51;;;;;;;4.32;1.83;;;;;;;17.05;100.00;94015.75;5136859;28;20196;-82
2021/07/07 09:47:19;;;;;;;4.05;1.90;;;;;;;17.68;100.00;94015.84;5136996;28;20568;-81
2021/07/07 09:49:48;;;;;;;2.80;1.60;;;;;;;18.27;100.00;94010.22;5137815;28;20192;-81
2021/07/07 09:52:15;;;;;;;2.67;1.42;;;;;;;18.20;100.00;94018.31;5134913;28;20203;-81
2021/07/07 09:54:43;;;;;;;2.35;1.15;;;;;;;17.84;100.00;94030.13;5136708;28;20231;-81
2021/07/07 09:57:10;;;;;;;2.45;1.50;;;;;;;17.90;100.00;94039.75;5133852;28;20655;-81
2021/07/07 09:59:36;;;;;;;2.75;1.38;;;;;;;17.90;100.00;94027.34;5133864;28;20205;-80
2021/07/07 10:02:04;;;;;;;1.90;1.02;;;;;;;17.51;100.00;94031.66;5133644;28;20273;-80
2021/07/07 10:04:33;;;;;;;2.08;1.17;;;;;;;18.06;100.00;94024.94;5133870;28;20579;-80
2021/07/07 10:07:02;;;;;;;2.90;1.33;;;;;;;18.18;100.00;94030.16;5133729;28;20624;-80
2021/07/07 10:09:28;;;;;;;1.52;1.08;;;;;;;18.58;100.00;94029.91;5133649;28;20227;-80
2021/07/07 10:11:56;;;;;;;2.22;0.93;;;;;;;19.17;100.00;94032.03;5133066;28;20200;-80
2021/07/07 10:14:23;;;;;;;1.50;0.93;;;;;;;19.22;100.00;94033.94;5133473;28;20205;-80
2021/07/07 10:16:50;;;;;;;1.25;0.85;;;;;;;19.16;100.00;94026.97;5133659;28;20242;-79
2021/07/07 10:19:17;;;;;;;1.17;0.90;;;;;;;18.79;100.00;94025.72;5133452;28;20650;-80
2021/07/07 10:21:43;;;;;;;7.75;1.30;;;;;;;18.70;100.00;94027.16;5133594;28;20283;-78
2021/07/07 10:24:13;;;;;;;3.92;1.13;;;;;;;18.63;100.00;94037.13;5133534;28;20197;-79
2021/07/07 10:26:40;;;;;;;2.25;1.17;;;;;;;18.71;100.00;94042.00;5133412;28;20583;-79
2021/07/07 10:29:08;;;;;;;1.83;1.10;;;;;;;18.16;100.00;94040.16;5132904;28;20911;-80
2021/07/07 10:31:48;;;;;;;2.65;0.85;;;;;;;18.28;100.00;94027.66;5133591;28;20203;-79
2021/07/07 10:34:15;;;;;;;3.22;1.05;;;;;;;18.13;100.00;94036.16;5133459;28;20211;-77
2021/07/07 10:36:42;;;;;;;1.23;0.90;;;;;;;18.38;100.00;94025.16;5133345;28;20203;-79
2021/07/07 10:39:11;;;;;;;1.33;0.82;;;;;;;18.67;100.00;94015.25;5133382;28;20200;-79
2021/07/07 10:41:55;;;;;;;1.60;0.90;;;;;;;18.50;100.00;94019.75;5133201;28;20200;-78
2021/07/07 10:44:51;;;;;;;1.23;0.90;;;;;;;18.02;100.00;94037.84;5132722;28;20209;-79
2021/07/07 10:47:18;;;;;;;2.05;1.00;;;;;;;17.78;100.00;94036.34;5133216;28;20224;-80
2021/07/07 10:49:46;;;;;;;1.95;1.30;;;;;;;17.80;100.00;94042.97;5133229;27;20305;-79
2021/07/07 10:52:16;;;;;;;1.65;1.02;;;;;;;17.90;100.00;94034.44;5136328;27;20204;-79
2021/07/07 10:54:55;;;;;;;1.13;0.90;;;;;;;17.96;100.00;94032.72;5137092;27;20236;-78
2021/07/07 10:57:25;;;;;;;3.08;0.90;;;;;;;18.11;100.00;94027.66;5136900;27;20257;-77
2021/07/07 10:59:54;;;;;;;5.47;1.00;;;;;;;18.11;100.00;94036.38;5136813;27;20211;-78
2021/07/07 11:02:22;;;;;;;3.45;1.00;;;;;;;18.04;100.00;94035.75;5136707;27;20235;-78
2021/07/07 11:04:50;;;;;;;2.17;1.40;;;;;;;17.76;100.00;94032.09;5136864;27;20253;-79
2021/07/07 11:07:39;;;;;;;3.50;1.10;;;;;;;17.94;100.00;94025.81;5136688;27;20228;-78
2021/07/07 11:10:10;;;;;;;2.13;1.15;;;;;;;17.71;100.00;94029.38;5130875;27;20671;-78
2021/07/07 11:13:16;;;;;;;1.15;0.85;;;;;;;17.90;100.00;94021.25;5136528;27;20730;-78
2021/07/07 11:15:44;;;;;;;1.00;0.70;;;;;;;18.07;100.00;94027.34;5136705;27;20205;-78
2021/07/07 11:18:22;;;;;;;0.70;0.45;;;;;;;18.17;100.00;94031.19;5136553;27;20197;-78
2021/07/07 11:21:00;;;;;;;1.42;0.63;;;;;;;18.18;100.00;94030.16;5136502;27;20200;-78
2021/07/07 11:23:26;;;;;;;1.17;0.60;;;;;;;18.36;100.00;94027.25;5136529;27;20674;-78
2021/07/07 11:25:53;;;;;;;1.40;0.73;;;;;;;18.05;100.00;94018.88;5136500;27;20231;-78
2021/07/07 11:28:21;;;;;;;1.88;0.60;;;;;;;17.97;100.00;94006.06;5135941;27;20235;-78